createdAt,value
2023-02-02T00:00:45.132Z,17
2023-02-02T00:01:45.147Z,14
2023-02-02T00:02:45.147Z,13
2023-02-02T00:03:45.148Z,12
2023-02-02T00:04:45.133Z,13
2023-02-02T00:05:45.148Z,12
2023-02-02T00:06:45.149Z,12
2023-02-02T00:07:45.148Z,15
2023-02-02T00:08:45.133Z,13
2023-02-02T00:09:45.149Z,13
2023-02-02T00:10:45.149Z,12
2023-02-02T00:11:45.133Z,12
2023-02-02T00:12:45.134Z,12
2023-02-02T00:13:45.149Z,14
2023-02-02T00:14:45.150Z,16
2023-02-02T00:15:45.134Z,16
2023-02-02T00:16:45.134Z,18
2023-02-02T00:17:45.149Z,19
2023-02-02T00:18:45.150Z,19
2023-02-02T00:19:45.134Z,17
2023-02-02T00:20:45.150Z,13
2023-02-02T00:21:45.150Z,13
2023-02-02T00:22:45.150Z,13
2023-02-02T00:23:45.135Z,12
2023-02-02T00:24:45.151Z,11
2023-02-02T00:25:45.151Z,12
2023-02-02T00:26:45.151Z,11
2023-02-02T00:27:45.135Z,13
2023-02-02T00:28:45.151Z,12
2023-02-02T00:29:45.152Z,10
2023-02-02T00:30:45.163Z,12
2023-02-02T00:31:45.136Z,10
2023-02-02T00:32:45.151Z,13
2023-02-02T00:33:45.152Z,13
2023-02-02T00:34:45.136Z,9
2023-02-02T00:35:45.136Z,9
2023-02-02T00:36:45.152Z,11
2023-02-02T00:37:45.216Z,12
2023-02-02T00:38:45.137Z,9
2023-02-02T00:39:45.152Z,8
2023-02-02T00:40:45.152Z,8
2023-02-02T00:41:45.152Z,8
2023-02-02T00:42:45.137Z,8
2023-02-02T00:43:45.153Z,7
2023-02-02T00:44:45.178Z,9
2023-02-02T00:45:45.153Z,9
2023-02-02T00:46:45.138Z,10
2023-02-02T00:47:45.153Z,11
2023-02-02T00:49:45.153Z,12
2023-02-02T00:50:45.138Z,7
2023-02-02T00:51:45.202Z,9
2023-02-02T00:52:45.154Z,14
2023-02-02T00:53:45.139Z,13
2023-02-02T00:54:45.139Z,14
2023-02-02T00:55:45.154Z,13
2023-02-02T00:56:45.155Z,13
2023-02-02T00:57:45.139Z,14
2023-02-02T00:58:45.163Z,13
2023-02-02T00:59:45.155Z,15
2023-02-02T01:00:45.155Z,20
2023-02-02T01:01:45.140Z,18
2023-02-02T01:02:45.155Z,16
2023-02-02T01:03:45.155Z,13
2023-02-02T01:04:45.155Z,13
2023-02-02T01:05:45.140Z,13
2023-02-02T01:06:45.155Z,14
2023-02-02T01:07:45.156Z,16
2023-02-02T01:08:45.156Z,14
2023-02-02T01:09:45.140Z,16
2023-02-02T01:10:45.156Z,14
2023-02-02T01:11:45.157Z,12
2023-02-02T01:12:45.156Z,12
2023-02-02T01:13:45.141Z,14
2023-02-02T01:14:45.156Z,10
2023-02-02T01:15:45.157Z,12
2023-02-02T01:16:45.141Z,12
2023-02-02T01:17:45.141Z,9
2023-02-02T01:18:45.157Z,9
2023-02-02T01:19:45.157Z,9
2023-02-02T01:20:45.142Z,12
2023-02-02T01:21:45.157Z,12
2023-02-02T01:22:45.157Z,13
2023-02-02T01:23:45.157Z,11
2023-02-02T01:24:45.142Z,11
2023-02-02T01:25:45.158Z,10
2023-02-02T01:26:45.182Z,11
2023-02-02T01:27:45.158Z,13
2023-02-02T01:28:45.143Z,12
2023-02-02T01:29:45.158Z,11
2023-02-02T01:30:45.159Z,12
2023-02-02T01:31:45.158Z,11
2023-02-02T01:32:45.143Z,12
2023-02-02T01:33:45.158Z,11
2023-02-02T01:34:45.159Z,13
2023-02-02T01:35:45.143Z,10
2023-02-02T01:36:45.144Z,11
2023-02-02T01:37:45.159Z,10
2023-02-02T01:38:45.160Z,9
2023-02-02T01:39:45.144Z,10
2023-02-02T01:40:45.159Z,9
2023-02-02T01:41:45.159Z,9
2023-02-02T01:42:45.159Z,8
2023-02-02T01:43:45.144Z,8
2023-02-02T01:44:45.160Z,8
2023-02-02T01:45:45.160Z,8
2023-02-02T01:46:45.160Z,9
2023-02-02T01:47:45.145Z,9
2023-02-02T01:48:45.160Z,8
2023-02-02T01:49:45.161Z,10
2023-02-02T01:50:45.160Z,10
2023-02-02T01:51:45.145Z,10
2023-02-02T01:52:45.161Z,11
2023-02-02T01:53:45.161Z,10
2023-02-02T01:54:45.146Z,11
2023-02-02T01:55:45.146Z,10
2023-02-02T01:56:45.161Z,11
2023-02-02T01:57:45.162Z,10
2023-02-02T01:58:45.146Z,11
2023-02-02T01:59:45.146Z,10
2023-02-02T02:00:45.162Z,11
2023-02-02T02:01:45.161Z,10
2023-02-02T02:02:45.146Z,11
2023-02-02T02:03:45.162Z,10
2023-02-02T02:04:45.162Z,11
2023-02-02T02:05:45.162Z,8
2023-02-02T02:06:45.147Z,9
2023-02-02T02:07:45.162Z,11
2023-02-02T02:08:45.163Z,10
2023-02-02T02:09:45.163Z,14
2023-02-02T02:10:45.147Z,16
2023-02-02T02:11:45.163Z,17
2023-02-02T02:12:45.163Z,16
2023-02-02T02:13:45.148Z,19
2023-02-02T02:14:45.148Z,17
2023-02-02T02:15:45.163Z,18
2023-02-02T02:16:45.164Z,18
2023-02-02T02:17:45.148Z,18
2023-02-02T02:18:45.148Z,19
2023-02-02T02:19:45.163Z,19
2023-02-02T02:20:45.164Z,17
2023-02-02T02:21:45.148Z,17
2023-02-02T02:22:45.164Z,22
2023-02-02T02:23:45.164Z,18
2023-02-02T02:24:45.164Z,18
2023-02-02T02:25:45.149Z,19
2023-02-02T02:26:45.164Z,23
2023-02-02T02:27:45.165Z,17
2023-02-02T02:28:45.164Z,18
2023-02-02T02:29:45.149Z,20
2023-02-02T02:30:45.165Z,17
2023-02-02T02:31:45.166Z,17
2023-02-02T02:32:45.165Z,18
2023-02-02T02:33:45.150Z,16
2023-02-02T02:34:45.165Z,17
2023-02-02T02:35:45.166Z,16
2023-02-02T02:36:45.150Z,15
2023-02-02T02:37:45.150Z,15
2023-02-02T02:38:45.166Z,16
2023-02-02T02:39:45.166Z,17
2023-02-02T02:40:45.151Z,14
2023-02-02T02:41:45.166Z,12
2023-02-02T02:42:45.166Z,12
2023-02-02T02:43:45.166Z,12
2023-02-02T02:44:45.151Z,10
2023-02-02T02:45:45.167Z,11
2023-02-02T02:46:45.167Z,12
2023-02-02T02:47:45.167Z,11
2023-02-02T02:48:45.152Z,11
2023-02-02T02:49:45.167Z,12
2023-02-02T02:50:45.168Z,10
2023-02-02T02:51:45.167Z,12
2023-02-02T02:52:45.152Z,11
2023-02-02T02:53:45.232Z,12
2023-02-02T02:54:45.168Z,12
2023-02-02T02:55:45.152Z,14
2023-02-02T02:56:45.152Z,12
2023-02-02T02:57:45.168Z,12
2023-02-02T02:58:45.168Z,13
2023-02-02T02:59:45.153Z,12
2023-02-02T03:00:45.233Z,13
2023-02-02T03:01:45.168Z,15
2023-02-02T03:02:45.168Z,15
2023-02-02T03:03:45.153Z,13
2023-02-02T03:04:45.169Z,13
2023-02-02T03:05:45.169Z,13
2023-02-02T03:06:45.169Z,12
2023-02-02T03:07:45.154Z,12
2023-02-02T03:08:45.169Z,14
2023-02-02T03:09:45.170Z,15
2023-02-02T03:10:45.169Z,16
2023-02-02T03:11:45.154Z,16
2023-02-02T03:12:45.170Z,16
2023-02-02T03:13:45.170Z,16
2023-02-02T03:14:45.154Z,14
2023-02-02T03:15:45.155Z,13
2023-02-02T03:16:45.170Z,15
2023-02-02T03:17:45.171Z,12
2023-02-02T03:18:45.155Z,15
2023-02-02T03:19:45.155Z,14
2023-02-02T03:20:45.170Z,13
2023-02-02T03:21:45.170Z,12
2023-02-02T03:22:45.155Z,12
2023-02-02T03:23:45.171Z,14
2023-02-02T03:24:45.171Z,16
2023-02-02T03:25:45.171Z,13
2023-02-02T03:26:45.156Z,13
2023-02-02T03:27:45.171Z,15
2023-02-02T03:28:45.172Z,13
2023-02-02T03:29:45.171Z,14
2023-02-02T03:30:45.156Z,18
2023-02-02T03:31:45.172Z,15
2023-02-02T03:32:45.172Z,16
2023-02-02T03:33:45.182Z,16
2023-02-02T03:34:45.157Z,17
2023-02-02T03:35:45.172Z,17
2023-02-02T03:36:45.173Z,15
2023-02-02T03:37:45.157Z,14
2023-02-02T03:38:45.157Z,13
2023-02-02T03:39:45.173Z,13
2023-02-02T03:40:45.173Z,12
2023-02-02T03:41:45.158Z,12
2023-02-02T03:42:45.173Z,13
2023-02-02T03:43:45.173Z,15
2023-02-02T03:44:45.173Z,14
2023-02-02T03:45:45.158Z,14
2023-02-02T03:46:45.173Z,15
2023-02-02T03:47:45.198Z,12
2023-02-02T03:48:45.174Z,14
2023-02-02T03:49:45.158Z,13
2023-02-02T03:50:45.174Z,14
2023-02-02T03:51:45.175Z,14
2023-02-02T03:52:45.174Z,16
2023-02-02T03:53:45.159Z,13
2023-02-02T03:54:45.223Z,13
2023-02-02T03:55:45.175Z,12
2023-02-02T03:56:45.159Z,16
2023-02-02T03:57:45.159Z,13
2023-02-02T03:58:45.175Z,14
2023-02-02T03:59:45.176Z,13
2023-02-02T04:00:45.160Z,14
2023-02-02T04:01:45.240Z,14
2023-02-02T04:02:45.175Z,15
2023-02-02T04:03:45.175Z,14
2023-02-02T04:04:45.160Z,14
2023-02-02T04:05:45.176Z,13
2023-02-02T04:06:45.176Z,13
2023-02-02T04:07:45.176Z,16
2023-02-02T04:08:45.161Z,19
2023-02-02T04:09:45.176Z,18
2023-02-02T04:10:45.177Z,23
2023-02-02T04:11:45.177Z,13
2023-02-02T04:12:45.161Z,13
2023-02-02T04:13:45.177Z,12
2023-02-02T04:14:45.178Z,12
2023-02-02T04:15:45.162Z,13
2023-02-02T04:16:45.162Z,13
2023-02-02T04:17:45.177Z,15
2023-02-02T04:18:45.178Z,14
2023-02-02T04:19:45.162Z,14
2023-02-02T04:20:45.162Z,14
2023-02-02T04:21:45.178Z,14
2023-02-02T04:22:45.186Z,15
2023-02-02T04:23:45.163Z,14
2023-02-02T04:24:45.178Z,15
2023-02-02T04:25:45.178Z,18
2023-02-02T04:26:45.178Z,15
2023-02-02T04:27:45.163Z,13
2023-02-02T04:28:45.179Z,13
2023-02-02T04:29:45.230Z,14
2023-02-02T04:30:45.179Z,13
2023-02-02T04:31:45.164Z,13
2023-02-02T04:32:45.179Z,14
2023-02-02T04:33:45.180Z,16
2023-02-02T04:34:45.179Z,15
2023-02-02T04:35:45.164Z,13
2023-02-02T04:36:45.203Z,16
2023-02-02T04:37:45.180Z,14
2023-02-02T04:38:45.164Z,13
2023-02-02T04:39:45.165Z,16
2023-02-02T04:40:45.180Z,14
2023-02-02T04:41:45.181Z,14
2023-02-02T04:42:45.165Z,17
2023-02-02T04:43:45.204Z,17
2023-02-02T04:44:45.180Z,14
2023-02-02T04:45:45.180Z,14
2023-02-02T04:46:45.165Z,14
2023-02-02T04:47:45.181Z,15
2023-02-02T04:48:45.181Z,14
2023-02-02T04:49:45.181Z,16
2023-02-02T04:50:45.166Z,14
2023-02-02T04:51:45.182Z,14
2023-02-02T04:52:45.182Z,15
2023-02-02T04:53:45.182Z,16
2023-02-02T04:54:45.166Z,17
2023-02-02T04:55:45.182Z,13
2023-02-02T04:56:45.183Z,14
2023-02-02T04:57:45.167Z,17
2023-02-02T04:58:45.167Z,17
2023-02-02T04:59:45.182Z,10
2023-02-02T05:00:45.183Z,12
2023-02-02T05:01:45.167Z,10
2023-02-02T05:02:45.167Z,11
2023-02-02T05:03:45.183Z,14
2023-02-02T05:04:45.183Z,13
2023-02-02T05:05:45.168Z,15
2023-02-02T05:06:45.183Z,14
2023-02-02T05:07:45.183Z,15
2023-02-02T05:08:45.183Z,16
2023-02-02T05:09:45.168Z,18
2023-02-02T05:10:45.184Z,18
2023-02-02T05:11:45.185Z,16
2023-02-02T05:12:45.184Z,20
2023-02-02T05:13:45.169Z,19
2023-02-02T05:14:45.184Z,18
2023-02-02T05:15:45.185Z,14
2023-02-02T05:16:45.184Z,14
2023-02-02T05:17:45.169Z,16
2023-02-02T05:18:45.185Z,18
2023-02-02T05:19:45.186Z,15
2023-02-02T05:20:45.170Z,18
2023-02-02T05:21:45.170Z,15
2023-02-02T05:22:45.185Z,15
2023-02-02T05:23:45.186Z,14
2023-02-02T05:24:45.170Z,14
2023-02-02T05:25:45.186Z,14
2023-02-02T05:26:45.186Z,14
2023-02-02T05:27:45.186Z,19
2023-02-02T05:28:45.171Z,20
2023-02-02T05:29:45.186Z,17
2023-02-02T05:30:45.228Z,21
2023-02-02T05:31:45.186Z,18
2023-02-02T05:32:45.171Z,18
2023-02-02T05:33:45.186Z,20
2023-02-02T05:34:45.187Z,19
2023-02-02T05:35:45.187Z,22
2023-02-02T05:36:45.172Z,19
2023-02-02T05:37:45.187Z,21
2023-02-02T05:38:45.188Z,23
2023-02-02T05:39:45.172Z,20
2023-02-02T05:40:45.172Z,17
2023-02-02T05:41:45.187Z,18
2023-02-02T05:42:45.188Z,19
2023-02-02T05:43:45.172Z,16
2023-02-02T05:44:45.188Z,17
2023-02-02T05:45:45.188Z,19
2023-02-02T05:46:45.188Z,18
2023-02-02T05:47:45.173Z,21
2023-02-02T05:48:45.188Z,25
2023-02-02T05:49:45.188Z,23
2023-02-02T05:50:45.188Z,22
2023-02-02T05:51:45.173Z,25
2023-02-02T05:52:45.189Z,24
2023-02-02T05:53:45.190Z,19
2023-02-02T05:54:45.189Z,23
2023-02-02T05:55:45.174Z,21
2023-02-02T05:56:45.189Z,22
2023-02-02T05:57:45.190Z,24
2023-02-02T05:58:45.174Z,22
2023-02-02T05:59:45.174Z,22
2023-02-02T06:00:45.190Z,24
2023-02-02T06:01:45.190Z,21
2023-02-02T06:02:45.175Z,23
2023-02-02T06:03:45.175Z,18
2023-02-02T06:04:45.190Z,19
2023-02-02T06:05:45.190Z,20
2023-02-02T06:06:45.175Z,24
2023-02-02T06:07:45.191Z,23
2023-02-02T06:08:45.191Z,28
2023-02-02T06:09:45.191Z,30
2023-02-02T06:10:45.176Z,36
2023-02-02T06:11:45.191Z,30
2023-02-02T06:12:45.192Z,27
2023-02-02T06:13:45.191Z,28
2023-02-02T06:14:45.176Z,25
2023-02-02T06:15:45.192Z,34
2023-02-02T06:16:45.192Z,43
2023-02-02T06:17:45.192Z,36
2023-02-02T06:18:45.177Z,34
2023-02-02T06:19:45.192Z,42
2023-02-02T06:20:45.193Z,37
2023-02-02T06:21:45.177Z,37
2023-02-02T06:22:45.177Z,35
2023-02-02T06:23:45.193Z,28
2023-02-02T06:24:45.193Z,27
2023-02-02T06:25:45.178Z,32
2023-02-02T06:26:45.193Z,24
2023-02-02T06:27:45.193Z,37
2023-02-02T06:28:45.193Z,27
2023-02-02T06:29:45.178Z,30
2023-02-02T06:30:45.193Z,34
2023-02-02T06:31:45.218Z,34
2023-02-02T06:32:45.194Z,31
2023-02-02T06:33:45.179Z,36
2023-02-02T06:34:45.194Z,33
2023-02-02T06:35:45.195Z,31
2023-02-02T06:36:45.194Z,34
2023-02-02T06:37:45.179Z,33
2023-02-02T06:38:45.243Z,39
2023-02-02T06:39:45.195Z,39
2023-02-02T06:40:45.179Z,37
2023-02-02T06:41:45.180Z,42
2023-02-02T06:42:45.195Z,45
2023-02-02T06:43:45.196Z,37
2023-02-02T06:44:45.180Z,35
2023-02-02T06:45:45.260Z,38
2023-02-02T06:46:45.195Z,38
2023-02-02T06:47:45.196Z,29
2023-02-02T06:48:45.180Z,32
2023-02-02T06:49:45.196Z,36
2023-02-02T06:50:45.196Z,34
2023-02-02T06:51:45.196Z,43
2023-02-02T06:52:45.181Z,33
2023-02-02T06:53:45.196Z,35
2023-02-02T06:54:45.197Z,39
2023-02-02T06:55:45.196Z,46
2023-02-02T06:56:45.181Z,33
2023-02-02T06:57:45.197Z,38
2023-02-02T06:58:45.197Z,35
2023-02-02T06:59:45.182Z,43
2023-02-02T07:00:45.182Z,36
2023-02-02T07:01:45.198Z,39
2023-02-02T07:02:45.198Z,37
2023-02-02T07:03:45.182Z,39
2023-02-02T07:04:45.182Z,44
2023-02-02T07:05:45.198Z,44
2023-02-02T07:06:45.198Z,41
2023-02-02T07:07:45.183Z,40
2023-02-02T07:08:45.198Z,39
2023-02-02T07:09:45.198Z,40
2023-02-02T07:10:45.198Z,43
2023-02-02T07:11:45.183Z,43
2023-02-02T07:12:45.199Z,41
2023-02-02T07:13:45.199Z,38
2023-02-02T07:14:45.199Z,32
2023-02-02T07:15:45.184Z,32
2023-02-02T07:16:45.199Z,32
2023-02-02T07:17:45.200Z,32
2023-02-02T07:18:45.213Z,35
2023-02-02T07:19:45.184Z,40
2023-02-02T07:20:45.200Z,33
2023-02-02T07:21:45.201Z,34
2023-02-02T07:22:45.185Z,36
2023-02-02T07:23:45.185Z,41
2023-02-02T07:24:45.200Z,34
2023-02-02T07:25:45.265Z,40
2023-02-02T07:26:45.185Z,40
2023-02-02T07:27:45.201Z,42
2023-02-02T07:28:45.201Z,37
2023-02-02T07:29:45.201Z,34
2023-02-02T07:30:45.186Z,36
2023-02-02T07:31:45.201Z,29
2023-02-02T07:32:45.226Z,31
2023-02-02T07:33:45.201Z,30
2023-02-02T07:34:45.186Z,36
2023-02-02T07:35:45.202Z,33
2023-02-02T07:36:45.202Z,39
2023-02-02T07:37:45.202Z,34
2023-02-02T07:38:45.187Z,35
2023-02-02T07:39:45.202Z,38
2023-02-02T07:40:45.203Z,32
2023-02-02T07:41:45.187Z,32
2023-02-02T07:42:45.187Z,27
2023-02-02T07:43:45.202Z,31
2023-02-02T07:44:45.203Z,38
2023-02-02T07:45:45.188Z,36
2023-02-02T07:46:45.268Z,38
2023-02-02T07:47:45.203Z,42
2023-02-02T07:48:45.203Z,32
2023-02-02T07:49:45.188Z,34
2023-02-02T07:50:45.203Z,27
2023-02-02T07:51:45.204Z,34
2023-02-02T07:53:45.189Z,44
2023-02-02T07:54:45.204Z,34
2023-02-02T07:55:45.205Z,42
2023-02-02T07:56:45.204Z,45
2023-02-02T07:57:45.189Z,39
2023-02-02T07:58:45.204Z,34
2023-02-02T07:59:45.205Z,40
2023-02-02T08:00:45.189Z,53
2023-02-02T08:01:45.190Z,42
2023-02-02T08:02:45.205Z,40
2023-02-02T08:03:45.206Z,36
2023-02-02T08:04:45.190Z,41
2023-02-02T08:05:45.190Z,42
2023-02-02T08:06:45.205Z,38
2023-02-02T08:07:45.206Z,44
2023-02-02T08:08:45.190Z,44
2023-02-02T08:09:45.206Z,53
2023-02-02T08:10:45.206Z,51
2023-02-02T08:11:45.206Z,48
2023-02-02T08:12:45.191Z,41
2023-02-02T08:13:45.206Z,47
2023-02-02T08:14:45.208Z,46
2023-02-02T08:15:45.207Z,52
2023-02-02T08:16:45.192Z,49
2023-02-02T08:17:45.207Z,44
2023-02-02T08:18:45.208Z,39
2023-02-02T08:19:45.221Z,47
2023-02-02T08:20:45.192Z,43
2023-02-02T08:21:45.207Z,35
2023-02-02T08:22:45.208Z,37
2023-02-02T08:23:45.192Z,41
2023-02-02T08:24:45.193Z,43
2023-02-02T08:25:45.208Z,43
2023-02-02T08:26:45.273Z,35
2023-02-02T08:27:45.193Z,42
2023-02-02T08:28:45.209Z,45
2023-02-02T08:29:45.208Z,43
2023-02-02T08:30:45.209Z,42
2023-02-02T08:31:45.193Z,44
2023-02-02T08:32:45.209Z,41
2023-02-02T08:33:45.234Z,37
2023-02-02T08:34:45.209Z,41
2023-02-02T08:35:45.194Z,45
2023-02-02T08:36:45.209Z,53
2023-02-02T08:37:45.210Z,50
2023-02-02T08:38:45.210Z,50
2023-02-02T08:39:45.194Z,47
2023-02-02T08:40:45.258Z,43
2023-02-02T08:41:45.211Z,46
2023-02-02T08:42:45.195Z,42
2023-02-02T08:43:45.195Z,35
2023-02-02T08:44:45.210Z,44
2023-02-02T08:45:45.211Z,48
2023-02-02T08:46:45.195Z,44
2023-02-02T08:47:45.260Z,36
2023-02-02T08:48:45.211Z,38
2023-02-02T08:49:45.211Z,47
2023-02-02T08:50:45.196Z,45
2023-02-02T08:51:45.211Z,43
2023-02-02T08:52:45.211Z,41
2023-02-02T08:53:45.211Z,48
2023-02-02T08:54:45.196Z,52
2023-02-02T08:55:45.212Z,42
2023-02-02T08:56:45.213Z,48
2023-02-02T08:57:45.212Z,40
2023-02-02T08:58:45.197Z,45
2023-02-02T08:59:45.212Z,50
2023-02-02T09:00:45.213Z,46
2023-02-02T09:01:45.197Z,43
2023-02-02T09:02:45.198Z,40
2023-02-02T09:03:45.213Z,39
2023-02-02T09:04:45.214Z,45
2023-02-02T09:05:45.198Z,38
2023-02-02T09:06:45.198Z,49
2023-02-02T09:07:45.213Z,45
2023-02-02T09:08:45.214Z,55
2023-02-02T09:09:45.198Z,57
2023-02-02T09:10:45.214Z,44
2023-02-02T09:11:45.214Z,56
2023-02-02T09:12:45.214Z,58
2023-02-02T09:13:45.199Z,64
2023-02-02T09:14:45.214Z,65
2023-02-02T09:15:45.215Z,63
2023-02-02T09:16:45.215Z,62
2023-02-02T09:17:45.200Z,60
2023-02-02T09:18:45.215Z,53
2023-02-02T09:19:45.216Z,54
2023-02-02T09:20:45.215Z,54
2023-02-02T09:21:45.200Z,49
2023-02-02T09:22:45.215Z,54
2023-02-02T09:23:45.216Z,55
2023-02-02T09:24:45.200Z,60
2023-02-02T09:25:45.201Z,49
2023-02-02T09:26:45.216Z,41
2023-02-02T09:27:45.217Z,45
2023-02-02T09:28:45.201Z,46
2023-02-02T09:29:45.216Z,51
2023-02-02T09:30:45.217Z,48
2023-02-02T09:31:45.217Z,44
2023-02-02T09:32:45.201Z,44
2023-02-02T09:33:45.217Z,40
2023-02-02T09:34:45.217Z,41
2023-02-02T09:35:45.217Z,48
2023-02-02T09:36:45.202Z,47
2023-02-02T09:37:45.217Z,50
2023-02-02T09:38:45.218Z,46
2023-02-02T09:39:45.218Z,47
2023-02-02T09:40:45.203Z,37
2023-02-02T09:41:45.282Z,42
2023-02-02T09:42:45.219Z,43
2023-02-02T09:43:45.203Z,48
2023-02-02T09:44:45.203Z,63
2023-02-02T09:45:45.219Z,65
2023-02-02T09:46:45.219Z,49
2023-02-02T09:47:45.203Z,61
2023-02-02T09:48:45.284Z,61
2023-02-02T09:49:45.219Z,53
2023-02-02T09:50:45.219Z,49
2023-02-02T09:51:45.204Z,49
2023-02-02T09:52:45.220Z,45
2023-02-02T09:53:45.220Z,56
2023-02-02T09:54:45.220Z,62
2023-02-02T09:55:45.205Z,59
2023-02-02T09:56:45.220Z,51
2023-02-02T09:57:45.221Z,56
2023-02-02T09:58:45.220Z,55
2023-02-02T09:59:45.205Z,52
2023-02-02T10:00:45.221Z,55
2023-02-02T10:01:45.221Z,50
2023-02-02T10:02:45.205Z,47
2023-02-02T10:03:45.206Z,44
2023-02-02T10:04:45.221Z,51
2023-02-02T10:05:45.222Z,41
2023-02-02T10:06:45.206Z,46
2023-02-02T10:07:45.206Z,49
2023-02-02T10:08:45.221Z,44
2023-02-02T10:09:45.222Z,57
2023-02-02T10:10:45.207Z,58
2023-02-02T10:11:45.222Z,57
2023-02-02T10:12:45.222Z,60
2023-02-02T10:13:45.222Z,54
2023-02-02T10:14:45.207Z,56
2023-02-02T10:15:45.222Z,55
2023-02-02T10:16:45.223Z,58
2023-02-02T10:18:45.208Z,57
2023-02-02T10:19:45.223Z,61
2023-02-02T10:21:45.225Z,52
2023-02-02T10:22:45.208Z,57
2023-02-02T10:23:45.223Z,67
2023-02-02T10:24:45.224Z,71
2023-02-02T10:25:45.208Z,71
2023-02-02T10:26:45.209Z,62
2023-02-02T10:27:45.224Z,50
2023-02-02T10:28:45.224Z,49
2023-02-02T10:29:45.209Z,57
2023-02-02T10:30:45.225Z,58
2023-02-02T10:31:45.224Z,48
2023-02-02T10:32:45.225Z,52
2023-02-02T10:33:45.210Z,62
2023-02-02T10:34:45.225Z,51
2023-02-02T10:35:45.226Z,49
2023-02-02T10:36:45.225Z,55
2023-02-02T10:37:45.210Z,61
2023-02-02T10:38:45.226Z,45
2023-02-02T10:39:45.226Z,53
2023-02-02T10:40:45.226Z,47
2023-02-02T10:41:45.211Z,57
2023-02-02T10:42:45.226Z,54
2023-02-02T10:43:45.227Z,54
2023-02-02T10:44:45.211Z,57
2023-02-02T10:45:45.211Z,64
2023-02-02T10:46:45.227Z,58
2023-02-02T10:47:45.227Z,56
2023-02-02T10:48:45.212Z,60
2023-02-02T10:49:45.227Z,46
2023-02-02T10:50:45.227Z,40
2023-02-02T10:51:45.227Z,44
2023-02-02T10:52:45.212Z,48
2023-02-02T10:53:45.228Z,55
2023-02-02T10:54:45.228Z,46
2023-02-02T10:55:45.228Z,52
2023-02-02T10:56:45.213Z,47
2023-02-02T10:57:45.228Z,50
2023-02-02T10:58:45.229Z,46
2023-02-02T10:59:45.228Z,53
2023-02-02T11:00:45.213Z,63
2023-02-02T11:01:45.293Z,58
2023-02-02T11:02:45.229Z,56
2023-02-02T11:03:45.214Z,50
2023-02-02T11:04:45.214Z,69
2023-02-02T11:05:45.229Z,63
2023-02-02T11:06:45.230Z,60
2023-02-02T11:07:45.214Z,69
2023-02-02T11:08:45.294Z,63
2023-02-02T11:09:45.230Z,51
2023-02-02T11:10:45.230Z,44
2023-02-02T11:11:45.215Z,48
2023-02-02T11:12:45.230Z,51
2023-02-02T11:13:45.230Z,40
2023-02-02T11:14:45.230Z,48
2023-02-02T11:15:45.215Z,57
2023-02-02T11:16:45.231Z,58
2023-02-02T11:17:45.231Z,63
2023-02-02T11:18:45.231Z,62
2023-02-02T11:19:45.216Z,55
2023-02-02T11:20:45.231Z,50
2023-02-02T11:21:45.232Z,70
2023-02-02T11:22:45.216Z,79
2023-02-02T11:23:45.216Z,75
2023-02-02T11:24:45.232Z,76
2023-02-02T11:25:45.232Z,79
2023-02-02T11:26:45.217Z,77
2023-02-02T11:27:45.217Z,74
2023-02-02T11:28:45.232Z,54
2023-02-02T11:29:45.233Z,55
2023-02-02T11:30:45.217Z,56
2023-02-02T11:31:45.233Z,67
2023-02-02T11:32:45.233Z,63
2023-02-02T11:33:45.233Z,68
2023-02-02T11:34:45.218Z,75
2023-02-02T11:35:45.234Z,72
2023-02-02T11:36:45.234Z,60
2023-02-02T11:37:45.234Z,57
2023-02-02T11:38:45.218Z,52
2023-02-02T11:39:45.234Z,58
2023-02-02T11:40:45.234Z,58
2023-02-02T11:41:45.234Z,57
2023-02-02T11:42:45.219Z,49
2023-02-02T11:43:45.235Z,46
2023-02-02T11:44:45.235Z,63
2023-02-02T11:45:45.219Z,71
2023-02-02T11:46:45.220Z,67
2023-02-02T11:47:45.235Z,65
2023-02-02T11:48:45.236Z,65
2023-02-02T11:49:45.220Z,84
2023-02-02T11:50:45.235Z,80
2023-02-02T11:51:45.235Z,86
2023-02-02T11:52:45.236Z,77
2023-02-02T11:53:45.221Z,74
2023-02-02T11:54:45.236Z,75
2023-02-02T11:55:45.261Z,82
2023-02-02T11:56:45.236Z,80
2023-02-02T11:57:45.221Z,72
2023-02-02T11:58:45.237Z,70
2023-02-02T11:59:45.237Z,78
2023-02-02T12:00:45.237Z,90
2023-02-02T12:01:45.222Z,91
2023-02-02T12:02:45.286Z,94
2023-02-02T12:03:45.238Z,98
2023-02-02T12:04:45.222Z,78
2023-02-02T12:05:45.222Z,88
2023-02-02T12:06:45.238Z,89
2023-02-02T12:07:45.238Z,79
2023-02-02T12:08:45.223Z,70
2023-02-02T12:09:45.261Z,64
2023-02-02T12:10:45.238Z,70
2023-02-02T12:11:45.238Z,76
2023-02-02T12:12:45.223Z,83
2023-02-02T12:13:45.239Z,74
2023-02-02T12:14:45.239Z,87
2023-02-02T12:15:45.239Z,90
2023-02-02T12:16:45.224Z,85
2023-02-02T12:17:45.239Z,76
2023-02-02T12:18:45.240Z,72
2023-02-02T12:19:45.239Z,63
2023-02-02T12:20:45.224Z,69
2023-02-02T12:21:45.240Z,66
2023-02-02T12:22:45.240Z,65
2023-02-02T12:23:45.225Z,69
2023-02-02T12:24:45.225Z,71
2023-02-02T12:25:45.240Z,66
2023-02-02T12:26:45.241Z,63
2023-02-02T12:27:45.225Z,72
2023-02-02T12:28:45.225Z,66
2023-02-02T12:29:45.241Z,66
2023-02-02T12:30:45.241Z,53
2023-02-02T12:31:45.226Z,43
2023-02-02T12:32:45.241Z,49
2023-02-02T12:33:45.241Z,57
2023-02-02T12:34:45.241Z,58
2023-02-02T12:35:45.226Z,53
2023-02-02T12:36:45.242Z,49
2023-02-02T12:37:45.243Z,43
2023-02-02T12:38:45.242Z,60
2023-02-02T12:39:45.227Z,47
2023-02-02T12:40:45.242Z,49
2023-02-02T12:41:45.243Z,58
2023-02-02T12:42:45.243Z,61
2023-02-02T12:43:45.227Z,54
2023-02-02T12:44:45.243Z,58
2023-02-02T12:45:45.243Z,74
2023-02-02T12:46:45.228Z,74
2023-02-02T12:47:45.228Z,72
2023-02-02T12:48:45.243Z,78
2023-02-02T12:49:45.244Z,89
2023-02-02T12:50:45.228Z,72
2023-02-02T12:51:45.244Z,67
2023-02-02T12:52:45.244Z,61
2023-02-02T12:53:45.244Z,56
2023-02-02T12:54:45.229Z,59
2023-02-02T12:55:45.244Z,57
2023-02-02T12:56:45.244Z,63
2023-02-02T12:57:45.245Z,59
2023-02-02T12:58:45.229Z,65
2023-02-02T12:59:45.245Z,67
2023-02-02T13:00:45.245Z,71
2023-02-02T13:01:45.245Z,61
2023-02-02T13:02:45.230Z,59
2023-02-02T13:03:45.246Z,67
2023-02-02T13:04:45.246Z,65
2023-02-02T13:05:45.230Z,61
2023-02-02T13:06:45.230Z,71
2023-02-02T13:07:45.246Z,62
2023-02-02T13:08:45.247Z,67
2023-02-02T13:09:45.231Z,66
2023-02-02T13:10:45.231Z,66
2023-02-02T13:11:45.246Z,65
2023-02-02T13:12:45.247Z,65
2023-02-02T13:13:45.231Z,62
2023-02-02T13:15:45.247Z,63
2023-02-02T13:16:45.247Z,67
2023-02-02T13:17:45.232Z,67
2023-02-02T13:18:45.247Z,60
2023-02-02T13:19:45.248Z,70
2023-02-02T13:20:45.248Z,59
2023-02-02T13:21:45.233Z,57
2023-02-02T13:22:45.248Z,61
2023-02-02T13:23:45.249Z,58
2023-02-02T13:24:45.233Z,46
2023-02-02T13:25:45.233Z,45
2023-02-02T13:26:45.248Z,55
2023-02-02T13:27:45.249Z,55
2023-02-02T13:28:45.233Z,53
2023-02-02T13:29:45.234Z,49
2023-02-02T13:30:45.249Z,56
2023-02-02T13:31:45.249Z,57
2023-02-02T13:32:45.234Z,60
2023-02-02T13:33:45.250Z,51
2023-02-02T13:34:45.249Z,52
2023-02-02T13:35:45.250Z,58
2023-02-02T13:36:45.235Z,59
2023-02-02T13:37:45.250Z,61
2023-02-02T13:38:45.251Z,61
2023-02-02T13:39:45.250Z,57
2023-02-02T13:40:45.235Z,52
2023-02-02T13:41:45.251Z,50
2023-02-02T13:42:45.251Z,54
2023-02-02T13:43:45.251Z,47
2023-02-02T13:44:45.236Z,53
2023-02-02T13:45:45.251Z,63
2023-02-02T13:46:45.252Z,45
2023-02-02T13:47:45.236Z,50
2023-02-02T13:48:45.236Z,36
2023-02-02T13:49:45.252Z,45
2023-02-02T13:50:45.316Z,57
2023-02-02T13:51:45.237Z,48
2023-02-02T13:52:45.252Z,51
2023-02-02T13:53:45.252Z,48
2023-02-02T13:54:45.252Z,44
2023-02-02T13:55:45.237Z,51
2023-02-02T13:56:45.253Z,59
2023-02-02T13:57:45.277Z,50
2023-02-02T13:58:45.253Z,57
2023-02-02T13:59:45.238Z,54
2023-02-02T14:00:45.253Z,54
2023-02-02T14:01:45.254Z,55
2023-02-02T14:02:45.253Z,53
2023-02-02T14:03:45.238Z,46
2023-02-02T14:04:45.302Z,54
2023-02-02T14:05:45.254Z,59
2023-02-02T14:06:45.239Z,56
2023-02-02T14:07:45.239Z,51
2023-02-02T14:08:45.254Z,62
2023-02-02T14:09:45.255Z,51
2023-02-02T14:10:45.239Z,47
2023-02-02T14:11:45.319Z,59
2023-02-02T14:12:45.255Z,54
2023-02-02T14:13:45.255Z,42
2023-02-02T14:14:45.240Z,41
2023-02-02T14:15:45.255Z,44
2023-02-02T14:16:45.255Z,45
2023-02-02T14:17:45.255Z,36
2023-02-02T14:18:45.240Z,38
2023-02-02T14:19:45.256Z,41
2023-02-02T14:20:45.256Z,37
2023-02-02T14:21:45.256Z,36